TimeEST,TemperatureF,Dew PointF,Humidity,Sea Level PressureIn,VisibilityMPH,Wind Direction,Wind SpeedMPH,Gust SpeedMPH,PrecipitationIn,Events,Conditions,WindDirDegrees,DateUTC
12:56 AM,39.9,30.9,70,29.27,10.0,WSW,15.0,-,N/A,,Mostly Cloudy,240,2012-12-22 05:56:00
1:56 AM,39.9,30.0,68,29.28,10.0,WSW,10.4,-,N/A,,Overcast,240,2012-12-22 06:56:00
2:56 AM,39.9,30.9,70,29.29,10.0,WSW,9.2,18.4,N/A,,Overcast,240,2012-12-22 07:56:00
3:56 AM,39.9,32.0,73,29.29,10.0,SW,13.8,-,N/A,,Overcast,230,2012-12-22 08:56:00
4:56 AM,39.0,30.9,73,29.28,10.0,WSW,11.5,-,N/A,,Scattered Clouds,240,2012-12-22 09:56:00
5:56 AM,39.9,32.0,73,29.30,10.0,WSW,11.5,-,0.00,,Overcast,240,2012-12-22 10:56:00
6:56 AM,39.0,34.0,82,29.32,10.0,West,10.4,20.7,0.00,,Overcast,260,2012-12-22 11:56:00
7:56 AM,37.9,33.1,83,29.33,10.0,WSW,8.1,-,N/A,,Overcast,250,2012-12-22 12:56:00
8:52 AM,37.4,33.8,87,29.35,10.0,West,10.4,18.4,0.00,Rain,Light Rain,270,2012-12-22 13:52:00
8:56 AM,39.0,33.1,79,29.36,10.0,West,9.2,-,0.00,Rain,Light Rain,270,2012-12-22 13:56:00
9:07 AM,37.4,33.8,87,29.36,10.0,West,11.5,-,0.00,Rain,Light Rain,260,2012-12-22 14:07:00
9:56 AM,39.0,34.0,82,29.37,10.0,WSW,13.8,-,0.00,,Overcast,250,2012-12-22 14:56:00
10:23 AM,39.2,33.8,81,29.36,10.0,West,17.3,21.9,0.00,Rain,Light Rain,260,2012-12-22 15:23:00
10:56 AM,39.0,34.0,82,29.36,10.0,West,12.7,-,0.00,,Overcast,260,2012-12-22 15:56:00
11:12 AM,39.2,32.0,75,29.35,10.0,West,11.5,19.6,N/A,,Overcast,270,2012-12-22 16:12:00
11:56 AM,39.0,28.9,67,29.35,10.0,West,12.7,24.2,N/A,,Overcast,260,2012-12-22 16:56:00
12:56 PM,39.9,24.1,53,29.35,10.0,West,13.8,21.9,N/A,,Mostly Cloudy,280,2012-12-22 17:56:00
1:56 PM,37.9,21.0,51,29.37,10.0,West,13.8,28.8,N/A,,Overcast,270,2012-12-22 18:56:00
2:56 PM,37.0,17.1,44,29.40,10.0,West,17.3,26.5,N/A,,Partly Cloudy,280,2012-12-22 19:56:00
3:56 PM,34.0,18.0,52,29.43,10.0,West,20.7,26.5,N/A,,Clear,280,2012-12-22 20:56:00
4:56 PM,33.1,18.0,54,29.46,10.0,West,15.0,23.0,N/A,,Scattered Clouds,270,2012-12-22 21:56:00
5:56 PM,33.1,16.0,50,29.50,10.0,WNW,13.8,25.3,N/A,,Clear,290,2012-12-22 22:56:00
6:56 PM,32.0,17.1,54,29.53,10.0,West,13.8,27.6,N/A,,Clear,280,2012-12-22 23:56:00
7:56 PM,30.9,18.0,59,29.56,10.0,WNW,10.4,21.9,N/A,,Mostly Cloudy,290,2012-12-23 00:56:00
8:56 PM,30.9,17.1,57,29.59,10.0,WNW,8.1,18.4,N/A,,Scattered Clouds,300,2012-12-23 01:56:00
9:56 PM,30.0,16.0,56,29.61,10.0,WNW,6.9,-,N/A,,Clear,290,2012-12-23 02:56:00
10:56 PM,30.0,16.0,56,29.63,10.0,WNW,12.7,20.7,N/A,,Clear,290,2012-12-23 03:56:00
11:56 PM,30.9,17.1,57,29.64,10.0,WNW,9.2,23.0,N/A,,Clear,300,2012-12-23 04:56:00